.
WxDataArchive / Data Records for 2014-09-09
2014-09-08 September 2014 2014-09-10

Data Records for Tuesday, 09 September 2014

Time	Temp	Chill	HIndex	Humid	Dewpt	 Wind 	HiWind	WindDir	Rain 	Barom
-----	----	-----	------	-----	-----	------	------	-------	-----	-----
00:00	61.8	61.8	61.8	84	56.9	0	0	---	0.00	30.021 
00:05	61.6	61.6	61.6	84	56.7	0	0	---	0.00	30.021 
00:10	61.6	61.6	61.6	84	56.7	0	0	---	0.00	30.021 
00:15	61.5	61.5	61.5	84	56.6	0	0	---	0.00	30.019 
00:20	61.5	61.5	61.5	84	56.6	0	0	---	0.00	30.019 
00:25	61.3	61.3	61.3	84	56.4	0	0	---	0.00	30.019 
00:30	61.2	61.2	61.2	85	56.6	0	1	90	0.00	30.021 
00:35	60.9	60.9	60.9	85	56.4	0	0	---	0.00	30.021 
00:40	60.7	60.7	60.7	85	56.2	0	0	---	0.00	30.021 
00:45	60.5	60.5	60.5	86	56.3	0	0	---	0.00	30.021 
00:50	60.4	60.4	60.4	86	56.2	0	0	---	0.00	30.021 
00:55	60.2	60.2	60.2	86	56.0	0	0	---	0.00	30.021 
01:00	60.1	60.1	60.1	87	56.2	0	0	---	0.00	30.022 
01:05	59.9	59.9	59.9	87	56.0	0	0	---	0.00	30.022 
01:10	59.8	59.8	59.8	87	55.9	0	0	---	0.00	30.022 
01:15	59.5	59.5	59.5	88	55.9	0	0	---	0.00	30.019 
01:20	59.3	59.3	59.3	88	55.7	0	0	---	0.00	30.019 
01:25	59.2	59.2	59.2	88	55.6	0	0	---	0.00	30.019 
01:30	59.0	59.0	59.0	88	55.4	0	0	---	0.00	30.021 
01:35	58.9	58.9	58.9	89	55.7	0	0	---	0.00	30.021 
01:40	58.9	58.9	58.9	89	55.7	0	0	---	0.00	30.021 
01:45	58.7	58.7	58.7	89	55.5	0	0	---	0.00	30.018 
01:50	58.6	58.6	58.6	89	55.4	0	0	---	0.00	30.018 
01:55	58.4	58.4	58.4	90	55.5	0	0	---	0.00	30.018 
02:00	58.3	58.3	58.3	90	55.4	0	0	---	0.00	30.022 
02:05	58.1	58.1	58.1	90	55.2	0	0	---	0.00	30.022 
02:10	57.8	57.8	57.8	90	54.9	0	0	---	0.00	30.022 
02:15	57.6	57.6	57.6	90	54.7	0	0	---	0.00	30.012 
02:20	57.5	57.5	57.5	91	54.9	0	1	90	0.00	30.012 
02:25	57.3	57.3	57.3	91	54.7	0	0	---	0.00	30.012 
02:30	57.2	57.2	57.2	91	54.6	0	0	---	0.00	30.014 
02:35	57.0	57.0	57.0	91	54.4	0	0	---	0.00	30.014 
02:40	56.9	56.9	56.9	91	54.3	0	0	---	0.00	30.014 
02:45	56.7	56.7	56.7	92	54.4	0	0	---	0.00	30.009 
02:50	56.7	56.7	56.7	92	54.4	0	0	---	0.00	30.009 
02:55	56.6	56.6	56.6	92	54.3	0	0	---	0.00	30.009 
03:00	56.5	56.5	56.5	92	54.2	0	0	---	0.00	30.006 
03:05	56.3	56.3	56.3	92	54.0	0	0	---	0.00	30.006 
03:10	56.3	56.3	56.3	92	54.0	0	0	---	0.00	30.006 
03:15	56.2	56.2	56.2	92	53.9	0	0	---	0.00	30.009 
03:20	56.3	56.3	56.3	92	54.0	0	0	---	0.00	30.009 
03:25	56.3	56.3	56.3	93	54.3	0	0	---	0.00	30.009 
03:30	56.5	56.5	56.5	93	54.5	0	0	---	0.00	30.007 
03:35	56.3	56.3	56.3	93	54.3	0	0	---	0.00	30.007 
03:40	56.3	56.3	56.3	93	54.3	0	0	---	0.00	30.007 
03:45	56.2	56.2	56.2	93	54.2	0	0	---	0.00	30.008 
03:50	56.2	56.2	56.2	93	54.2	0	0	---	0.00	30.008 
03:55	56.2	56.2	56.2	93	54.2	0	0	---	0.00	30.008 
04:00	56.0	56.0	56.0	93	54.0	0	0	---	0.00	30.008 
04:05	56.0	56.0	56.0	93	54.0	0	0	---	0.00	30.008 
04:10	55.9	55.9	55.9	93	53.9	0	0	---	0.00	30.008 
04:15	55.9	55.9	55.9	93	53.9	0	0	---	0.00	30.007 
04:20	55.9	55.9	55.9	93	53.9	0	0	---	0.00	30.007 
04:25	55.7	55.7	55.7	93	53.7	0	0	---	0.00	30.007 
04:30	55.9	55.9	55.9	94	54.2	0	0	---	0.00	30.006 
04:35	55.9	55.9	55.9	93	53.9	0	0	---	0.00	30.006 
04:40	55.7	55.7	55.7	93	53.7	0	0	---	0.00	30.006 
04:45	55.4	55.4	55.4	93	53.4	0	0	---	0.00	29.998 
04:50	55.3	55.3	55.3	94	53.6	0	0	---	0.00	29.998 
04:55	55.3	55.3	55.3	94	53.6	0	0	---	0.00	29.998 
05:00	55.1	55.1	55.1	94	53.4	0	0	---	0.00	30.010 
05:05	55.0	55.0	55.0	94	53.3	0	0	---	0.00	30.010 
05:10	55.0	55.0	55.0	94	53.3	0	0	---	0.00	30.010 
05:15	54.8	54.8	54.8	94	53.1	0	0	---	0.00	30.020 
05:20	54.8	54.8	54.8	94	53.1	0	0	---	0.00	30.020 
05:25	54.7	54.7	54.7	94	53.0	0	0	---	0.00	30.020 
05:30	54.7	54.7	54.7	94	53.0	0	0	---	0.00	30.012 
05:35	54.5	54.5	54.5	94	52.8	0	0	---	0.00	30.012 
05:40	54.2	54.2	54.2	94	52.5	0	0	---	0.00	30.012 
05:45	54.1	54.1	54.1	94	52.4	0	0	---	0.00	30.017 
05:50	53.9	53.9	53.9	94	52.2	0	0	---	0.00	30.017 
05:55	53.9	53.9	53.9	94	52.2	0	0	---	0.00	30.017 
06:00	53.9	53.9	53.9	94	52.2	0	0	---	0.00	30.017 
06:05	53.9	53.9	53.9	94	52.2	0	0	---	0.00	30.017 
06:10	53.8	53.8	53.8	94	52.1	0	0	---	0.00	30.017 
06:15	53.8	53.8	53.8	94	52.1	0	0	---	0.00	30.025 
06:20	53.6	53.6	53.6	94	51.9	0	0	---	0.00	30.025 
06:25	53.6	53.6	53.6	94	51.9	0	0	---	0.00	30.025 
06:30	53.6	53.6	53.6	94	51.9	0	0	---	0.00	30.018 
06:35	53.5	53.5	53.5	94	51.8	0	0	---	0.00	30.018 
06:40	53.5	53.5	53.5	94	51.8	0	0	---	0.00	30.018 
06:45	53.6	53.6	53.6	94	51.9	0	0	---	0.00	30.017 
06:50	53.8	53.8	53.8	95	52.4	0	0	---	0.00	30.017 
06:55	53.9	53.9	53.9	95	52.5	0	0	---	0.00	30.017 
07:00	54.1	54.1	54.1	95	52.7	0	0	---	0.00	30.025 
07:05	54.2	54.2	54.2	95	52.8	0	0	---	0.00	30.025 
07:10	54.4	54.4	54.4	95	53.0	0	0	---	0.00	30.025 
07:15	54.4	54.4	54.4	95	53.0	0	0	---	0.00	30.030 
07:20	54.5	54.5	54.5	95	53.1	0	0	---	0.00	30.030 
07:25	54.7	54.7	54.7	95	53.3	0	0	---	0.00	30.030 
07:30	54.8	54.8	54.8	95	53.4	0	0	---	0.00	30.043 
07:35	55.1	55.1	55.1	95	53.7	0	0	---	0.00	30.043 
07:40	55.3	55.3	55.3	95	53.9	0	0	---	0.00	30.043 
07:45	55.4	55.4	55.4	95	54.0	0	0	---	0.00	30.040 
07:50	55.7	55.7	55.7	95	54.3	0	0	---	0.00	30.040 
07:55	55.9	55.9	55.9	95	54.5	0	0	---	0.00	30.040 
08:00	56.2	56.2	56.2	96	55.1	0	0	---	0.00	30.045 
08:05	56.5	56.5	56.5	96	55.4	0	0	---	0.00	30.045 
08:10	56.7	56.7	56.7	96	55.6	0	0	---	0.00	30.045 
08:15	57.0	57.0	57.0	96	55.9	0	0	---	0.00	30.050 
08:20	57.5	57.5	57.5	96	56.4	0	0	---	0.00	30.050 
08:25	57.6	57.6	57.6	96	56.5	0	0	---	0.00	30.050 
08:30	58.0	58.0	58.0	96	56.9	0	0	---	0.00	30.046 
08:35	58.3	58.3	58.3	96	57.2	0	0	---	0.00	30.046 
08:40	58.4	58.4	58.4	95	57.0	0	0	---	0.00	30.046 
08:45	58.6	58.6	58.6	95	57.2	0	0	---	0.00	30.037 
08:50	58.6	58.6	58.6	95	57.2	0	0	---	0.00	30.037 
08:55	58.9	58.9	58.9	95	57.5	0	0	---	0.00	30.037 
09:00	59.2	59.2	59.2	95	57.8	0	0	---	0.00	30.037 
09:05	59.5	59.5	59.5	95	58.1	0	0	---	0.00	30.037 
09:10	59.9	59.9	59.9	95	58.5	0	0	---	0.00	30.037 
09:15	60.2	60.2	60.2	95	58.8	0	0	---	0.00	30.036 
09:20	60.5	60.5	60.5	95	59.1	0	0	---	0.00	30.036 
09:25	61.0	61.0	61.0	94	59.3	0	0	---	0.00	30.036 
09:30	61.5	61.5	61.5	92	59.2	0	1	90	0.00	30.044 
09:35	62.1	62.1	62.1	90	59.1	0	1	90	0.00	30.044 
09:40	62.7	62.7	62.7	88	59.1	0	0	---	0.00	30.044 
09:45	63.5	63.5	63.5	87	59.6	0	0	---	0.00	30.045 
09:50	64.3	64.3	64.3	84	59.4	0	1	90	0.00	30.045 
09:55	65.5	65.5	65.5	81	59.5	0	0	---	0.00	30.045 
10:00	66.3	66.3	66.3	76	58.5	0	1	90	0.00	30.043 
10:05	66.9	66.9	66.9	73	58.0	0	1	90	0.00	30.043 
10:10	67.4	67.4	67.4	73	58.4	0	1	90	0.00	30.043 
10:15	67.8	67.8	67.8	71	58.0	0	0	---	0.00	30.042 
10:20	68.3	68.3	68.3	69	57.7	0	1	90	0.00	30.042 
10:25	68.8	68.8	68.8	69	58.2	0	1	90	0.00	30.042 
10:30	69.1	69.1	69.1	68	58.1	0	1	90	0.00	30.042 
10:35	69.1	69.1	69.1	66	57.3	0	2	90	0.00	30.042 
10:40	69.3	69.3	69.3	66	57.4	0	1	90	0.00	30.042 
10:45	69.3	69.3	69.3	67	57.9	0	1	90	0.00	30.053 
10:50	69.3	69.3	69.3	67	57.9	0	1	90	0.00	30.053 
10:55	69.4	69.4	69.4	66	57.5	0	1	90	0.00	30.053 
11:00	69.6	69.6	69.6	64	56.9	0	1	90	0.00	30.055 
11:05	69.6	69.6	69.6	62	56.0	0	1	90	0.00	30.055 
11:10	69.8	69.8	69.8	63	56.6	0	2	90	0.00	30.055 
11:15	69.8	69.8	69.8	63	56.6	0	0	---	0.00	30.052 
11:20	69.8	69.8	69.8	61	55.7	0	1	90	0.00	30.052 
11:25	69.9	69.9	69.9	63	56.7	0	1	90	0.00	30.052 
11:30	70.1	70.1	70.1	62	56.5	0	1	90	0.00	30.041 
11:35	70.3	70.3	70.3	62	56.7	0	1	90	0.00	30.041 
11:40	70.4	70.4	70.4	62	56.7	0	3	90	0.00	30.041 
11:45	70.4	70.4	70.4	62	56.7	0	0	---	0.00	30.030 
11:50	70.4	70.4	70.4	63	57.2	0	1	90	0.00	30.030 
11:55	70.6	70.6	70.6	63	57.4	0	1	90	0.00	30.030 
12:00	70.6	70.6	70.6	63	57.4	0	0	---	0.00	30.023 
12:05	70.6	70.6	70.6	62	56.9	0	1	90	0.00	30.023 
12:10	70.6	70.6	70.6	63	57.4	0	0	---	0.00	30.023 
12:15	70.6	70.6	70.6	64	57.8	0	0	---	0.00	30.027 
12:20	70.6	70.6	70.6	65	58.2	0	0	---	0.00	30.027 
12:25	70.6	70.6	70.6	64	57.8	0	0	---	0.00	30.027 
12:30	70.6	70.6	70.6	64	57.8	0	1	90	0.00	30.026 
12:35	70.4	70.4	70.4	64	57.6	0	1	90	0.00	30.026 
12:40	70.3	70.3	70.3	64	57.5	0	1	90	0.00	30.026 
12:45	70.3	70.3	70.3	64	57.5	0	0	---	0.00	30.028 
12:50	70.3	70.3	70.3	66	58.4	0	0	---	0.00	30.028 
12:55	70.3	70.3	70.3	66	58.4	0	0	---	0.00	30.028 
13:00	70.3	70.3	70.3	66	58.4	0	0	---	0.00	30.031 
13:05	70.4	70.4	70.4	66	58.5	0	0	---	0.00	30.031 
13:10	70.9	70.9	70.9	64	58.1	0	3	90	0.00	30.031 
13:15	71.6	71.6	71.6	64	58.8	0	1	90	0.00	30.024 
13:20	72.5	72.5	72.5	62	58.7	0	2	90	0.00	30.024 
13:25	73.0	73.0	73.0	61	58.7	0	1	90	0.00	30.024 
13:30	73.2	73.2	73.2	59	58.0	0	2	90	0.00	30.009 
13:35	73.2	73.2	73.2	59	58.0	0	2	90	0.00	30.009 
13:40	73.0	73.0	73.0	60	58.3	0	2	90	0.00	30.009 
13:45	72.8	72.8	72.8	62	59.0	0	0	---	0.00	30.011 
13:50	72.7	72.7	72.7	61	58.5	0	0	---	0.00	30.011 
13:55	72.7	72.7	72.7	62	58.9	0	1	90	0.00	30.011 
14:00	72.7	72.7	72.7	62	58.9	0	0	---	0.00	30.010 
14:05	72.7	72.7	72.7	62	58.9	0	1	90	0.00	30.010 
14:10	72.7	72.7	72.7	62	58.9	0	1	90	0.00	30.010 
14:15	72.7	72.7	72.7	62	58.9	0	1	90	0.00	30.012 
14:20	72.5	72.5	72.5	62	58.7	0	0	---	0.00	30.012 
14:25	72.5	72.5	72.5	63	59.2	0	1	90	0.00	30.012 
14:30	72.8	72.8	72.8	63	59.5	0	1	90	0.00	30.011 
14:35	73.3	73.3	73.3	64	60.4	0	1	90	0.00	30.011 
14:40	74.0	74.0	74.0	58	58.3	0	1	90	0.00	30.011 
14:45	74.7	74.7	74.7	57	58.4	0	2	90	0.00	30.003 
14:50	75.1	75.1	77.6	54	57.3	1	3	90	0.00	30.003 
14:55	75.4	75.4	77.7	55	58.1	1	4	90	0.00	30.003 
15:00	75.8	75.8	78.0	54	57.9	0	2	292	0.00	29.993 
15:05	76.3	76.3	78.3	54	58.4	1	3	292	0.00	29.993 
15:10	76.8	76.8	78.6	54	58.9	0	3	292	0.00	29.993 
15:15	77.4	77.4	78.9	52	58.4	0	2	135	0.00	29.993 
15:20	77.2	77.2	78.7	51	57.6	1	3	0	0.00	29.993 
15:25	76.7	76.7	78.5	53	58.3	0	1	22	0.00	29.993 
15:30	76.0	76.0	78.1	54	58.1	0	1	22	0.00	30.004 
15:35	75.4	75.4	77.6	59	60.1	0	1	22	0.00	30.004 
15:40	73.9	73.9	73.9	66	61.8	0	1	22	0.01	30.004 
15:45	72.3	72.3	72.3	70	62.0	0	0	---	0.00	30.000 
15:50	71.5	71.5	71.5	74	62.8	0	0	---	0.01	30.000 
15:55	70.8	70.8	70.8	76	62.8	0	1	22	0.00	30.000 
16:00	70.4	70.4	70.4	78	63.2	0	0	---	0.00	29.998 
16:05	70.1	70.1	70.1	79	63.3	0	0	---	0.00	29.998 
16:10	69.9	69.9	69.9	79	63.1	0	0	---	0.00	29.998 
16:15	69.9	69.9	69.9	80	63.4	0	0	---	0.00	29.996 
16:20	69.9	69.9	69.9	79	63.1	0	0	---	0.00	29.996 
16:25	69.9	69.9	69.9	79	63.1	0	0	---	0.00	29.996 
16:30	70.1	70.1	70.1	79	63.3	0	0	---	0.00	29.988 
16:35	70.3	70.3	70.3	79	63.5	0	0	---	0.00	29.988 
16:40	70.4	70.4	70.4	77	62.8	0	2	22	0.00	29.988 
16:45	70.6	70.6	70.6	77	63.0	0	2	22	0.00	29.979 
16:50	70.8	70.8	70.8	77	63.2	0	1	22	0.00	29.979 
16:55	70.8	70.8	70.8	77	63.2	0	1	22	0.00	29.979 
17:00	70.6	70.6	70.6	78	63.4	0	0	---	0.00	29.988 
17:05	70.4	70.4	70.4	78	63.2	0	0	---	0.00	29.988 
17:10	70.4	70.4	70.4	78	63.2	0	1	22	0.00	29.988 
17:15	70.6	70.6	70.6	77	63.0	0	1	22	0.00	29.984 
17:20	70.6	70.6	70.6	77	63.0	0	0	---	0.00	29.984 
17:25	70.4	70.4	70.4	76	62.5	0	1	22	0.00	29.984 
17:30	70.3	70.3	70.3	75	62.0	0	2	22	0.00	29.974 
17:35	70.4	70.4	70.4	76	62.5	0	1	22	0.00	29.974 
17:40	70.8	70.8	70.8	75	62.5	0	1	22	0.00	29.974 
17:45	71.1	71.1	71.1	74	62.4	0	1	22	0.00	29.981 
17:50	71.3	71.3	71.3	72	61.8	0	1	22	0.00	29.981 
17:55	71.1	71.1	71.1	71	61.2	0	1	22	0.00	29.981 
18:00	71.1	71.1	71.1	72	61.6	0	1	22	0.00	29.981 
18:05	71.3	71.3	71.3	73	62.2	0	2	22	0.00	29.981 
18:10	71.3	71.3	71.3	72	61.8	1	3	22	0.00	29.981 
18:15	71.1	71.1	71.1	72	61.6	0	1	22	0.00	29.980 
18:20	71.1	71.1	71.1	72	61.6	0	1	22	0.00	29.980 
18:25	70.9	70.9	70.9	73	61.8	0	1	22	0.00	29.980 
18:30	70.8	70.8	70.8	74	62.1	0	2	22	0.00	29.975 
18:35	70.8	70.8	70.8	73	61.7	0	2	22	0.00	29.975 
18:40	70.8	70.8	70.8	73	61.7	0	2	22	0.00	29.975 
18:45	70.8	70.8	70.8	72	61.3	0	2	22	0.00	29.974 
18:50	70.9	70.9	70.9	73	61.8	0	1	22	0.00	29.974 
18:55	70.9	70.9	70.9	72	61.4	1	2	22	0.00	29.974 
19:00	70.9	70.9	70.9	72	61.4	0	2	22	0.00	29.964 
19:05	70.9	70.9	70.9	72	61.4	1	2	22	0.00	29.964 
19:10	70.8	70.8	70.8	72	61.3	0	0	---	0.00	29.964 
19:15	70.6	70.6	70.6	72	61.1	0	2	22	0.00	29.964 
19:20	70.4	70.4	70.4	73	61.3	0	2	22	0.00	29.964 
19:25	70.1	70.1	70.1	73	61.0	0	2	22	0.00	29.964 
19:30	69.9	69.9	69.9	74	61.2	0	1	22	0.00	29.949 
19:35	69.6	69.6	69.6	75	61.3	0	1	22	0.00	29.949 
19:40	69.6	69.6	69.6	76	61.7	0	1	22	0.00	29.949 
19:45	69.4	69.4	69.4	76	61.5	0	0	---	0.00	29.948 
19:50	69.3	69.3	69.3	77	61.8	0	0	---	0.00	29.948 
19:55	69.3	69.3	69.3	77	61.8	0	1	22	0.00	29.948 
20:00	69.1	69.1	69.1	77	61.6	0	1	22	0.00	29.941 
20:05	68.9	68.9	68.9	77	61.4	0	2	22	0.00	29.941 
20:10	68.9	68.9	68.9	77	61.4	1	3	22	0.00	29.941 
20:15	68.6	68.6	68.6	77	61.1	0	3	22	0.00	29.934 
20:20	68.4	68.4	68.4	77	60.9	0	2	22	0.00	29.934 
20:25	68.4	68.4	68.4	78	61.3	0	1	22	0.00	29.934 
20:30	68.3	68.3	68.3	78	61.2	0	0	---	0.00	29.935 
20:35	68.1	68.1	68.1	79	61.3	0	1	22	0.00	29.935 
20:40	68.1	68.1	68.1	79	61.3	0	2	22	0.00	29.935 
20:45	67.9	67.9	67.9	79	61.1	0	0	---	0.00	29.937 
20:50	67.9	67.9	67.9	79	61.1	0	1	22	0.00	29.937 
20:55	67.9	67.9	67.9	79	61.1	0	0	---	0.00	29.937 
21:00	67.9	67.9	67.9	79	61.1	0	1	22	0.00	29.937 
21:05	68.1	68.1	68.1	79	61.3	0	3	22	0.00	29.937 
21:10	67.9	67.9	67.9	79	61.1	0	1	22	0.00	29.937 
21:15	67.9	67.9	67.9	79	61.1	0	1	22	0.00	29.938 
21:20	67.9	67.9	67.9	79	61.1	0	0	---	0.00	29.938 
21:25	67.8	67.8	67.8	79	61.0	0	0	---	0.00	29.938 
21:30	67.8	67.8	67.8	79	61.0	0	1	22	0.00	29.941 
21:35	67.6	67.6	67.6	80	61.2	0	0	---	0.00	29.941 
21:40	67.4	67.4	67.4	80	61.0	0	0	---	0.00	29.941 
21:45	67.3	67.3	67.3	80	60.9	0	0	---	0.00	29.951 
21:50	67.3	67.3	67.3	81	61.3	0	1	22	0.00	29.951 
21:55	67.1	67.1	67.1	81	61.1	0	0	---	0.00	29.951 
22:00	66.9	66.9	66.9	82	61.2	0	0	---	0.00	29.951 
22:05	66.8	66.8	66.8	82	61.1	0	0	---	0.00	29.951 
22:10	66.6	66.6	66.6	83	61.3	0	0	---	0.00	29.951 
22:15	66.4	66.4	66.4	83	61.1	0	0	---	0.00	29.945 
22:20	66.4	66.4	66.4	83	61.1	0	0	---	0.00	29.945 
22:25	66.4	66.4	66.4	83	61.1	0	0	---	0.00	29.945 
22:30	66.4	66.4	66.4	83	61.1	0	0	---	0.00	29.938 
22:35	66.3	66.3	66.3	83	61.0	0	0	---	0.00	29.938 
22:40	66.3	66.3	66.3	83	61.0	0	0	---	0.00	29.938 
22:45	66.3	66.3	66.3	83	61.0	0	1	22	0.00	29.933 
22:50	66.3	66.3	66.3	83	61.0	0	0	---	0.00	29.933 
22:55	66.1	66.1	66.1	83	60.8	0	0	---	0.00	29.933 
23:00	66.1	66.1	66.1	83	60.8	0	0	---	0.00	29.928 
23:05	66.0	66.0	66.0	83	60.7	0	0	---	0.00	29.928 
23:10	66.0	66.0	66.0	83	60.7	0	0	---	0.00	29.928 
23:15	65.8	65.8	65.8	83	60.5	0	0	---	0.00	29.932 
23:20	65.8	65.8	65.8	83	60.5	0	0	---	0.00	29.932 
23:25	65.6	65.6	65.6	84	60.6	0	0	---	0.00	29.932 
23:30	65.6	65.6	65.6	84	60.6	0	0	---	0.00	29.934 
23:35	65.5	65.5	65.5	84	60.5	0	0	---	0.00	29.934 
23:40	65.5	65.5	65.5	84	60.5	0	0	---	0.00	29.934 
23:45	65.5	65.5	65.5	84	60.5	0	0	---	0.00	29.938 
23:50	65.5	65.5	65.5	84	60.5	0	0	---	0.00	29.938 
23:55	65.6	65.6	65.6	84	60.6	0	0	---	0.00	29.938 

CoCoRaHS
IN-AL-39
A2 Web Hosting
Creative Commons License
GoDaddy
search engine by freefind advanced

loaded 2018-11-15 06:02:51 • last modified 2010-11-18 10:43:29
Privacy PolicyDisclaimer
• wx.awcolley.com is powered by PmWiki v.2002016 •
• all content (unless otherwise noted) © 2018 A W Colley